Houston, Ohio
Current Conditions -  °F | °C
As of 4:35 PM on Saturday 25 Oct 2014 (Local Time) from KVES Reporting Station
Clear Clear  
Wind Chill: 73°   Ceiling: Unl
Heat Index: 73°   Visibility: 10mi
Dew Point: 46°   Wind: 12mph
Humidity: 38%   Direction: 290°WNW
Pressure: 29.87"   Gusts: 25mph
Location:  40.25°N, 84.34°W
Report Text: KVES 252035Z AUTO 29010G22KT 10SM CLR 23/08 A2987 RMK AO2
Loading
Personal Weather Stations






























Interactive Weather Map
Tropical Storm Tracking
New forecast layout! Learn more

10-Day Weather Forecast

Advertisements
Track Severe Weather on mobile